Livermore, CA

6:08 AM PDT on October 01, 2016 (GMT -0700)
San Vincente - | | Change Station

Elev 541 ft 37.66 °N, 121.76 °W | Updated 15 seconds ago

Clear
Clear
52.5 °F
Feels Like 52.5 °F
N
0.9
Wind Variable Wind from SSW
Gusts 4.0 mph

Today
High -- | Low -- °F
--% Chance of Precip.
Yesterday
High -- | Low -- °F
Precip. -- in
Pressure 30.11 in
Visibility 10.0 miles
Clouds Clear
Dew Point 49 °F
Humidity 88%
Rainfall 0.00 in
Snow Depth Not available.
7:03 AM 6:49 PM
New Moon, 0% visible
METAR KLVK 011253Z AUTO 30004KT 10SM CLR 10/08 A3011 RMK AO2 SLP196 T01000078
Pressure 30.11 in
Visibility 10.0 miles
Clouds Clear
Dew Point 49 °F
Humidity 88%
Rainfall 0.00 in
Snow Depth Not available.
7:03 AM 6:49 PM
New Moon, 0% visible
METAR KLVK 011253Z AUTO 30004KT 10SM CLR 10/08 A3011 RMK AO2 SLP196 T01000078

10-Day Weather Forecast

Almanac

Astronomy

Oct. 01, 2016 Rise Set
Actual Time
Civil Twilight
Nautical Twilight
Astronomical Twilight
Moon
Length of Visible Light
Length of Day
Tomorrow will be .
, % of the Moon is Illuminated

Today's Extremes

State Highs State Lows

Community

WunderPhotos

Upload Photos

1,942,929 photos uploaded!

WunderBlog® & News

Nearby

Air Quality

  Air Quality AQ Index Pollutant
Not available.

Snow Depth

Station Depth Elevation

Earthquake Activity

City Distance Mag. Time & Date
Minimum magnitude displayed is 2.5.

Coastal Water Temperatures

Place Temperature

Stations

Nearby Weather Stations

Station Location Temp. Windchill Dew Point Humidity Wind Precip. Elev Updated Type
                   

Watches & Warnings

There are currently no watches in effect.